createdAt,value
2022-10-01T00:01:13.435Z,3.88
2022-10-01T00:03:40.682Z,3.40
2022-10-01T00:06:11.686Z,3.08
2022-10-01T00:08:42.144Z,3.63
2022-10-01T00:11:11.904Z,3.45
2022-10-01T00:13:39.025Z,3.20
2022-10-01T00:16:11.140Z,3.15
2022-10-01T00:18:40.006Z,3.70
2022-10-01T00:21:11.892Z,3.72
2022-10-01T00:23:38.643Z,3.60
2022-10-01T00:26:17.715Z,3.78
2022-10-01T00:28:46.817Z,3.58
2022-10-01T00:31:15.293Z,3.92
2022-10-01T00:33:42.518Z,3.85
2022-10-01T00:36:10.468Z,3.72
2022-10-01T00:38:43.064Z,3.70
2022-10-01T00:41:09.802Z,3.67
2022-10-01T00:43:42.345Z,3.83
2022-10-01T00:46:47.181Z,3.97
2022-10-01T00:49:19.716Z,4.63
2022-10-01T00:52:09.861Z,4.10
2022-10-01T00:54:53.483Z,4.50
2022-10-01T00:57:24.110Z,4.72
2022-10-01T00:59:54.312Z,4.57
2022-10-01T01:02:20.828Z,5.00
2022-10-01T01:04:48.122Z,4.90
2022-10-01T01:07:15.738Z,5.40
2022-10-01T01:09:51.242Z,5.30
2022-10-01T01:12:44.286Z,5.40
2022-10-01T01:15:32.077Z,5.00
2022-10-01T01:18:20.046Z,5.72
2022-10-01T01:20:50.501Z,5.07
2022-10-01T01:23:16.889Z,4.93
2022-10-01T01:26:25.239Z,4.57
2022-10-01T01:28:57.638Z,4.20
2022-10-01T01:31:31.562Z,4.38
2022-10-01T01:34:00.548Z,4.57
2022-10-01T01:36:32.225Z,4.80
2022-10-01T01:39:03.840Z,4.32
2022-10-01T01:41:35.680Z,3.75
2022-10-01T01:44:06.789Z,4.22
2022-10-01T01:46:36.100Z,4.10
2022-10-01T01:49:05.153Z,3.92
2022-10-01T01:51:47.786Z,3.80
2022-10-01T01:54:14.558Z,3.90
2022-10-01T01:56:41.368Z,3.85
2022-10-01T01:59:08.451Z,4.22
2022-10-01T02:01:39.263Z,3.50
2022-10-01T02:04:12.928Z,3.80
2022-10-01T02:07:16.022Z,4.10
2022-10-01T02:10:10.426Z,3.63
2022-10-01T02:13:14.893Z,3.75
2022-10-01T02:15:41.285Z,3.60
2022-10-01T02:18:25.952Z,4.18
2022-10-01T02:20:56.949Z,3.85
2022-10-01T02:23:31.086Z,3.50
2022-10-01T02:26:01.446Z,3.50
2022-10-01T02:28:32.706Z,3.97
2022-10-01T02:31:00.319Z,3.75
2022-10-01T02:33:32.142Z,3.83
2022-10-01T02:36:01.557Z,3.72
2022-10-01T02:38:29.169Z,4.03
2022-10-01T02:41:00.890Z,4.10
2022-10-01T02:43:32.500Z,3.80
2022-10-01T02:46:32.937Z,3.83
2022-10-01T02:49:01.109Z,4.18
2022-10-01T02:51:41.989Z,3.70
2022-10-01T02:54:22.541Z,3.60
2022-10-01T02:57:08.025Z,3.38
2022-10-01T02:59:34.459Z,3.53
2022-10-01T03:02:00.997Z,3.47
2022-10-01T03:04:27.541Z,3.50
2022-10-01T03:06:54.001Z,3.85
2022-10-01T03:09:20.429Z,3.50
2022-10-01T03:11:47.230Z,4.00
2022-10-01T03:14:13.680Z,3.88
2022-10-01T03:16:40.112Z,3.35
2022-10-01T03:19:06.663Z,2.83
2022-10-01T03:21:33.421Z,2.90
2022-10-01T03:24:00.105Z,3.30
2022-10-01T03:26:26.572Z,3.38
2022-10-01T03:28:53.076Z,2.92
2022-10-01T03:31:19.592Z,2.92
2022-10-01T03:34:04.022Z,2.70
2022-10-01T03:36:30.497Z,2.50
2022-10-01T03:38:56.969Z,2.90
2022-10-01T03:41:23.397Z,2.45
2022-10-01T03:43:49.872Z,2.72
2022-10-01T03:46:16.455Z,2.40
2022-10-01T03:48:42.952Z,2.70
2022-10-01T03:51:09.405Z,2.40
2022-10-01T03:53:35.839Z,2.42
2022-10-01T03:56:02.368Z,2.67
2022-10-01T03:58:28.799Z,2.85
2022-10-01T04:00:55.857Z,2.75
2022-10-01T04:03:22.291Z,1.90
2022-10-01T04:05:49.289Z,1.95
2022-10-01T04:08:17.919Z,1.60
2022-10-01T04:10:46.146Z,1.75
2022-10-01T04:13:12.592Z,1.83
2022-10-01T04:15:40.024Z,1.40
2022-10-01T04:18:07.056Z,1.23
2022-10-01T04:20:35.032Z,1.23
2022-10-01T04:23:02.106Z,0.98
2022-10-01T04:25:28.817Z,0.95
2022-10-01T04:28:00.703Z,1.02
2022-10-01T04:30:30.842Z,0.70
2022-10-01T04:32:57.494Z,0.80
2022-10-01T04:35:24.529Z,0.90
2022-10-01T04:37:58.989Z,0.70
2022-10-01T04:40:25.455Z,0.70
2022-10-01T04:42:52.046Z,0.70
2022-10-01T04:45:18.550Z,0.32
2022-10-01T04:47:52.333Z,0.60
2022-10-01T04:50:19.642Z,0.47
2022-10-01T04:52:46.979Z,0.45
2022-10-01T04:55:14.313Z,0.40
2022-10-01T04:57:40.745Z,0.47
2022-10-01T05:00:10.779Z,0.50
2022-10-01T05:02:37.675Z,0.65
2022-10-01T05:05:06.397Z,0.50
2022-10-01T05:07:34.213Z,0.60
2022-10-01T05:10:01.152Z,0.45
2022-10-01T05:12:28.248Z,0.47
2022-10-01T05:14:55.914Z,0.77
2022-10-01T05:17:22.869Z,0.38
2022-10-01T05:19:49.855Z,0.47
2022-10-01T05:22:16.766Z,0.60
2022-10-01T05:24:45.989Z,0.75
2022-10-01T05:27:13.264Z,0.73
2022-10-01T05:29:41.377Z,0.63
2022-10-01T05:32:12.130Z,0.80
2022-10-01T05:34:39.034Z,0.50
2022-10-01T05:37:06.214Z,0.70
2022-10-01T05:39:32.924Z,0.60
2022-10-01T05:42:06.163Z,0.73
2022-10-01T05:44:37.724Z,0.60
2022-10-01T05:47:06.328Z,0.55
2022-10-01T05:49:33.870Z,0.60
2022-10-01T05:52:00.937Z,0.60
2022-10-01T05:54:29.380Z,0.57
2022-10-01T05:56:56.812Z,0.50
2022-10-01T05:59:28.379Z,0.52
2022-10-01T06:01:57.955Z,0.60
2022-10-01T06:04:24.553Z,0.40
2022-10-01T06:06:50.999Z,0.32
2022-10-01T06:09:17.521Z,0.20
2022-10-01T06:11:43.958Z,0.17
2022-10-01T06:14:10.568Z,0.30
2022-10-01T06:16:37.082Z,0.30
2022-10-01T06:19:03.709Z,0.28
2022-10-01T06:21:31.744Z,0.40
2022-10-01T06:23:58.529Z,0.30
2022-10-01T06:26:24.980Z,0.50
2022-10-01T06:28:52.533Z,0.80
2022-10-01T06:31:19.612Z,0.60
2022-10-01T06:33:46.125Z,0.82
2022-10-01T06:36:12.626Z,0.90
2022-10-01T06:38:39.128Z,1.00
2022-10-01T06:41:05.710Z,0.85
2022-10-01T06:43:33.376Z,0.60
2022-10-01T06:46:05.011Z,0.40
2022-10-01T06:48:32.672Z,0.50
2022-10-01T06:50:59.444Z,0.60
2022-10-01T06:53:28.130Z,0.57
2022-10-01T06:55:55.335Z,0.80
2022-10-01T06:58:26.103Z,0.60
2022-10-01T07:00:58.950Z,0.70
2022-10-01T07:03:25.739Z,0.63
2022-10-01T07:05:52.462Z,0.20
2022-10-01T07:08:19.024Z,0.20
2022-10-01T07:10:45.669Z,0.32
2022-10-01T07:13:16.297Z,0.43
2022-10-01T07:15:43.430Z,0.50
2022-10-01T07:18:10.433Z,0.80
2022-10-01T07:20:39.800Z,1.13
2022-10-01T07:25:41.169Z,0.93
2022-10-01T07:28:16.129Z,0.95
2022-10-01T07:30:47.447Z,0.90
2022-10-01T07:33:18.179Z,1.15
2022-10-01T07:35:45.125Z,1.10
2022-10-01T07:38:11.554Z,1.20
2022-10-01T07:40:38.044Z,1.00
2022-10-01T07:43:04.884Z,0.93
2022-10-01T07:45:31.412Z,0.80
2022-10-01T07:47:59.975Z,0.82
2022-10-01T07:50:27.828Z,0.60
2022-10-01T07:52:56.095Z,0.77
2022-10-01T07:55:26.370Z,0.90
2022-10-01T07:57:54.135Z,0.65
2022-10-01T08:00:21.673Z,0.60
2022-10-01T08:02:53.527Z,1.20
2022-10-01T08:05:21.865Z,0.80
2022-10-01T08:07:49.344Z,0.82
2022-10-01T08:10:18.128Z,0.70
2022-10-01T08:12:44.660Z,0.85
2022-10-01T08:15:12.678Z,0.70
2022-10-01T08:17:39.302Z,0.90
2022-10-01T08:20:08.236Z,1.15
2022-10-01T08:22:39.803Z,0.75
2022-10-01T08:25:08.518Z,0.50
2022-10-01T08:27:35.302Z,0.98
2022-10-01T08:30:01.820Z,0.60
2022-10-01T08:32:28.324Z,0.55
2022-10-01T08:34:59.855Z,0.50
2022-10-01T08:37:29.680Z,0.82
2022-10-01T08:39:56.622Z,0.80
2022-10-01T08:42:40.876Z,0.82
2022-10-01T08:45:19.952Z,0.40
2022-10-01T08:48:30.849Z,0.60
2022-10-01T08:51:23.397Z,0.40
2022-10-01T08:53:58.755Z,0.28
2022-10-01T08:56:31.581Z,0.65
2022-10-01T08:59:02.852Z,0.50
2022-10-01T09:01:29.922Z,0.60
2022-10-01T09:03:56.860Z,0.40
2022-10-01T09:06:25.989Z,0.50
2022-10-01T09:08:57.623Z,0.57
2022-10-01T09:11:38.017Z,0.60
2022-10-01T09:14:46.716Z,0.50
2022-10-01T09:17:31.517Z,0.40
2022-10-01T09:20:10.088Z,1.30
2022-10-01T09:23:14.672Z,1.45
2022-10-01T09:25:43.504Z,0.90
2022-10-01T09:28:16.298Z,0.90
2022-10-01T09:30:49.758Z,1.00
2022-10-01T09:33:20.081Z,1.00
2022-10-01T09:36:03.580Z,1.40
2022-10-01T09:38:29.934Z,1.58
2022-10-01T09:40:58.121Z,1.80
2022-10-01T09:43:30.816Z,1.35
2022-10-01T09:45:57.634Z,1.73
2022-10-01T09:48:42.685Z,1.88
2022-10-01T09:51:23.834Z,1.75
2022-10-01T09:54:12.900Z,1.60
2022-10-01T09:56:48.074Z,1.75
2022-10-01T09:59:20.697Z,1.85
2022-10-01T10:01:51.526Z,2.40
2022-10-01T10:04:23.856Z,2.53
2022-10-01T10:06:53.198Z,2.70
2022-10-01T10:09:28.015Z,2.08
2022-10-01T10:11:56.537Z,2.28
2022-10-01T10:14:30.489Z,2.85
2022-10-01T10:16:57.239Z,3.05
2022-10-01T10:19:27.640Z,2.53
2022-10-01T10:22:00.548Z,3.05
2022-10-01T10:24:33.611Z,2.60
2022-10-01T10:27:02.422Z,2.60
2022-10-01T10:29:34.024Z,2.63
2022-10-01T10:32:13.696Z,2.70
2022-10-01T10:34:46.841Z,2.70
2022-10-01T10:37:15.933Z,2.70
2022-10-01T10:39:51.031Z,2.97
2022-10-01T10:42:22.976Z,2.70
2022-10-01T10:44:52.818Z,2.85
2022-10-01T10:47:21.324Z,2.42
2022-10-01T10:49:52.825Z,2.55
2022-10-01T10:52:29.594Z,2.58
2022-10-01T10:54:58.821Z,2.08
2022-10-01T10:57:30.228Z,2.42
2022-10-01T11:00:07.257Z,2.63
2022-10-01T11:02:33.985Z,2.63
2022-10-01T11:05:05.484Z,2.75
2022-10-01T11:07:32.322Z,3.15
2022-10-01T11:10:03.829Z,2.42
2022-10-01T11:13:08.678Z,2.92
2022-10-01T11:15:55.739Z,2.55
2022-10-01T11:18:50.630Z,3.17
2022-10-01T11:21:48.535Z,2.70
2022-10-01T11:24:33.034Z,2.70
2022-10-01T11:27:14.114Z,2.88
2022-10-01T11:29:50.069Z,3.05
